Time;durP1;ratioP1;P1;durP2;ratioP2;P2;SDS_P1;SDS_P2;PMS_P1;PMS_P2;Temp;Humidity;BMP_temperature;BMP_pressure;BME280_temperature;BME280_humidity;BME280_pressure;Samples;Min_cycle;Max_cycle;Signal;HPM_P1;HPM_P2
2022/11/12 00:00:32;;;;;;;25.10;22.30;;;;;;;3.23;100.00;102966.53;6153887;23;20096;-90
2022/11/12 00:02:57;;;;;;;23.80;21.30;;;;;;;3.29;100.00;102977.13;6153305;23;19989;-91
2022/11/12 00:05:23;;;;;;;25.30;21.95;;;;;;;3.31;100.00;102972.78;6153676;23;20461;-90
2022/11/12 00:07:48;;;;;;;27.42;22.23;;;;;;;3.35;100.00;102984.25;6148757;23;20005;-91
2022/11/12 00:10:15;;;;;;;26.48;23.35;;;;;;;3.29;100.00;102968.34;6153761;23;20036;-89
2022/11/12 00:12:40;;;;;;;26.05;22.25;;;;;;;3.32;100.00;102978.94;6154114;23;20036;-89
2022/11/12 00:15:06;;;;;;;24.23;21.58;;;;;;;3.27;100.00;102970.97;6153834;23;20538;-90
2022/11/12 00:17:31;;;;;;;24.70;21.98;;;;;;;3.26;100.00;102963.94;6152183;23;20009;-90
2022/11/12 00:19:56;;;;;;;25.15;22.42;;;;;;;3.23;100.00;102964.78;6153408;23;20009;-91
2022/11/12 00:22:22;;;;;;;25.75;21.45;;;;;;;3.23;100.00;102964.78;6124733;23;20009;-91
2022/11/12 00:24:47;;;;;;;24.83;21.52;;;;;;;3.23;100.00;102969.16;6152744;23;20060;-90
2022/11/12 00:27:13;;;;;;;25.30;22.63;;;;;;;3.27;100.00;102976.25;6150519;23;20012;-90
2022/11/12 00:29:38;;;;;;;24.20;21.63;;;;;;;3.31;100.00;102971.91;6126478;23;20081;-90
2022/11/12 00:32:05;;;;;;;24.52;20.63;;;;;;;3.24;100.00;102968.28;6125991;23;20713;-89
2022/11/12 00:34:31;;;;;;;22.73;20.30;;;;;;;3.20;100.00;102966.47;6152685;23;20008;-89
2022/11/12 00:36:56;;;;;;;23.10;20.00;;;;;;;3.19;100.00;102976.13;6150182;23;20006;-91
2022/11/12 00:39:21;;;;;;;22.58;20.15;;;;;;;3.08;100.00;102971.56;6150851;23;20016;-90
2022/11/12 00:41:47;;;;;;;23.08;20.52;;;;;;;3.11;100.00;102969.88;6125628;23;20017;-90
2022/11/12 00:44:12;;;;;;;21.98;19.67;;;;;;;3.12;100.00;102970.75;6152171;23;20045;-89
2022/11/12 00:46:37;;;;;;;24.05;20.13;;;;;;;2.98;100.00;102978.47;6125547;23;20017;-90
2022/11/12 00:49:02;;;;;;;21.23;19.02;;;;;;;3.04;100.00;102972.38;6153080;23;20009;-89
2022/11/12 00:51:28;;;;;;;23.10;20.60;;;;;;;3.01;100.00;102968.00;6154219;23;20001;-91
2022/11/12 00:53:53;;;;;;;22.15;19.25;;;;;;;3.01;100.00;102968.00;6154937;23;20006;-88
2022/11/12 00:56:18;;;;;;;22.08;19.67;;;;;;;2.97;100.00;102982.84;6135160;23;20071;-90
2022/11/12 00:58:43;;;;;;;21.83;19.52;;;;;;;2.92;100.00;102971.34;6162500;23;20048;-89
2022/11/12 01:01:12;;;;;;;21.95;19.65;;;;;;;2.97;100.00;102980.22;6161455;23;20040;-91
2022/11/12 01:03:38;;;;;;;21.45;19.13;;;;;;;2.94;100.00;102977.53;6136207;23;20334;-90
2022/11/12 01:06:10;;;;;;;21.13;18.83;;;;;;;2.89;100.00;102970.44;6152718;23;20123;-90
2022/11/12 01:08:36;;;;;;;23.30;20.38;;;;;;;2.89;100.00;102968.69;6153072;23;20017;-89
2022/11/12 01:11:16;;;;;;;20.83;18.45;;;;;;;2.84;100.00;102969.47;6153433;23;20006;-92
2022/11/12 01:13:44;;;;;;;21.60;19.23;;;;;;;2.84;100.00;102965.06;6153878;23;19993;-90
2022/11/12 01:16:12;;;;;;;21.95;19.40;;;;;;;2.77;100.00;102952.72;6152629;23;20009;-91
2022/11/12 01:18:38;;;;;;;21.38;19.00;;;;;;;2.82;100.00;102950.16;6127241;23;20009;-91
2022/11/12 01:21:05;;;;;;;21.63;19.35;;;;;;;2.77;100.00;102942.19;6154146;23;20443;-89
2022/11/12 01:23:32;;;;;;;25.00;19.73;;;;;;;2.67;100.00;102951.69;6163068;23;20036;-90
2022/11/12 01:25:57;;;;;;;22.60;20.17;;;;;;;2.64;100.00;102941.13;6167813;23;19990;-90
2022/11/12 01:28:23;;;;;;;20.63;18.42;;;;;;;2.61;100.00;102942.81;6146488;23;20087;-89
2022/11/12 01:30:48;;;;;;;26.67;20.52;;;;;;;2.65;100.00;102957.78;6152636;23;20025;-91
2022/11/12 01:33:13;;;;;;;21.60;19.40;;;;;;;2.60;100.00;102943.69;6154090;23;20029;-90
2022/11/12 01:35:39;;;;;;;22.38;19.38;;;;;;;2.50;100.00;102946.16;6132206;23;20092;-90
2022/11/12 01:38:04;;;;;;;23.42;19.20;;;;;;;2.47;100.00;102940.88;6151569;23;20010;-88
2022/11/12 01:40:31;;;;;;;22.00;19.70;;;;;;;2.47;100.00;102948.75;6155818;23;20028;-88
2022/11/12 01:42:56;;;;;;;21.95;19.45;;;;;;;2.44;100.00;102943.44;6158931;23;20028;-91
2022/11/12 01:45:22;;;;;;;22.02;19.45;;;;;;;2.48;100.00;102940.00;6157461;23;20419;-89
2022/11/12 01:47:50;;;;;;;21.85;19.10;;;;;;;2.45;100.00;102947.81;6155173;23;20067;-91
2022/11/12 01:50:22;;;;;;;20.85;18.75;;;;;;;2.48;100.00;102952.25;6152474;23;19993;-90
2022/11/12 01:52:58;;;;;;;21.95;19.60;;;;;;;2.48;100.00;102958.41;6151944;23;20036;-90
2022/11/12 01:55:29;;;;;;;21.58;19.15;;;;;;;2.52;100.00;102951.47;6154657;23;20014;-90
2022/11/12 01:58:05;;;;;;;21.33;19.13;;;;;;;2.48;100.00;102945.25;6153019;23;20063;-90
2022/11/12 02:00:31;;;;;;;23.13;19.67;;;;;;;2.49;100.00;102951.41;6154407;23;20088;-90
2022/11/12 02:02:59;;;;;;;20.40;18.30;;;;;;;2.53;100.00;102952.34;6151222;23;20664;-90
2022/11/12 02:05:26;;;;;;;20.25;18.08;;;;;;;2.52;100.00;102945.31;6151826;23;20045;-90
2022/11/12 02:07:52;;;;;;;20.85;18.65;;;;;;;2.52;100.00;102947.94;6150770;23;20076;-91
2022/11/12 02:10:19;;;;;;;19.60;17.52;;;;;;;2.46;100.00;102946.09;6126455;23;20080;-91
2022/11/12 02:15:29;;;;;;;20.05;17.90;;;;;;;2.39;100.00;102945.13;6152789;23;20080;-89
2022/11/12 02:17:54;;;;;;;19.73;17.73;;;;;;;2.44;100.00;102945.19;6151892;23;20013;-89
2022/11/12 02:20:20;;;;;;;20.10;18.00;;;;;;;2.32;100.00;102952.88;6152764;23;20001;-89
2022/11/12 02:22:45;;;;;;;20.63;18.42;;;;;;;2.35;100.00;102942.41;6152572;23;20020;-90
2022/11/12 02:25:15;;;;;;;19.73;17.73;;;;;;;2.31;100.00;102949.34;6125238;23;20384;-90
2022/11/12 02:27:41;;;;;;;21.15;18.80;;;;;;;2.33;100.00;102952.00;6123759;23;20006;-87
2022/11/12 02:30:06;;;;;;;21.30;19.00;;;;;;;2.21;100.00;102950.03;6150896;23;20542;-90
2022/11/12 02:32:32;;;;;;;22.05;19.65;;;;;;;2.28;100.00;102946.66;6152064;23;20013;-91
2022/11/12 02:34:57;;;;;;;21.48;18.80;;;;;;;2.25;100.00;102938.72;6151148;23;20088;-90
2022/11/12 02:37:22;;;;;;;21.85;19.65;;;;;;;2.26;100.00;102948.41;6150902;23;20020;-90
2022/11/12 02:39:47;;;;;;;21.38;19.17;;;;;;;2.28;100.00;102961.56;6125341;23;20009;-90
2022/11/12 02:42:13;;;;;;;22.67;19.10;;;;;;;2.27;100.00;102954.53;6124621;23;20008;-91
2022/11/12 02:44:38;;;;;;;22.48;19.63;;;;;;;2.21;100.00;102940.41;6151819;23;20424;-90
2022/11/12 02:47:03;;;;;;;22.38;19.98;;;;;;;2.22;100.00;102939.56;6150147;23;20005;-89
2022/11/12 02:49:29;;;;;;;22.92;19.75;;;;;;;2.10;100.00;102941.09;6125738;23;20400;-90
2022/11/12 02:51:54;;;;;;;21.35;19.15;;;;;;;2.16;100.00;102926.31;6150901;23;20403;-90
2022/11/12 02:54:19;;;;;;;22.33;19.77;;;;;;;2.15;100.00;102934.19;6152042;23;20001;-89
2022/11/12 02:56:44;;;;;;;21.40;19.10;;;;;;;2.16;100.00;102934.19;6150529;23;20420;-91
2022/11/12 02:59:10;;;;;;;21.33;18.33;;;;;;;2.13;100.00;102928.91;6151472;23;20096;-90
2022/11/12 03:01:35;;;;;;;21.08;18.58;;;;;;;2.12;100.00;102928.88;6151095;23;20009;-90
2022/11/12 03:04:00;;;;;;;25.45;19.85;;;;;;;2.12;100.00;102931.50;6152555;23;20028;-91
2022/11/12 03:06:25;;;;;;;26.77;20.15;;;;;;;2.15;100.00;102929.81;6154727;23;20075;-90
2022/11/12 03:08:51;;;;;;;26.88;21.13;;;;;;;2.15;100.00;102936.81;6167123;23;20009;-90
2022/11/12 03:11:17;;;;;;;27.15;20.45;;;;;;;2.15;100.00;102935.06;6165681;23;19993;-91
2022/11/12 03:13:43;;;;;;;23.25;19.27;;;;;;;2.16;100.00;102930.69;6171194;23;20021;-91
2022/11/12 03:16:08;;;;;;;24.45;20.10;;;;;;;2.19;100.00;102938.63;6137933;23;20013;-88
2022/11/12 03:18:34;;;;;;;23.75;20.17;;;;;;;2.14;100.00;102935.94;6163819;23;20012;-88
2022/11/12 03:21:00;;;;;;;23.88;19.83;;;;;;;2.10;100.00;102923.59;6153885;23;20068;-90
2022/11/12 03:23:26;;;;;;;24.02;19.60;;;;;;;2.18;100.00;102943.00;6155064;23;20009;-89
2022/11/12 03:25:52;;;;;;;22.27;19.73;;;;;;;2.19;100.00;102942.16;6154563;23;20008;-89
2022/11/12 03:28:17;;;;;;;21.63;18.83;;;;;;;2.18;100.00;102932.50;6130170;23;20096;-89
2022/11/12 03:30:43;;;;;;;23.55;19.83;;;;;;;2.20;100.00;102941.28;6167393;23;20001;-88
2022/11/12 03:33:11;;;;;;;23.30;19.00;;;;;;;2.15;100.00;102936.81;6166877;23;20016;-89
2022/11/12 03:35:37;;;;;;;22.50;18.50;;;;;;;2.18;100.00;102950.00;6142516;23;20006;-87
2022/11/12 03:38:03;;;;;;;21.88;18.90;;;;;;;2.20;100.00;102943.03;6168011;23;20010;-89
2022/11/12 03:40:29;;;;;;;21.67;18.30;;;;;;;2.19;100.00;102952.66;6156428;23;20060;-90
2022/11/12 03:42:55;;;;;;;21.83;19.00;;;;;;;2.14;100.00;102943.81;6153743;23;20006;-90
2022/11/12 03:45:23;;;;;;;21.30;18.95;;;;;;;2.17;100.00;102951.75;6154221;23;20400;-90
2022/11/12 03:47:52;;;;;;;20.42;18.10;;;;;;;2.18;100.00;102948.25;6154299;23;20018;-89
2022/11/12 03:50:19;;;;;;;20.25;17.95;;;;;;;2.17;100.00;102948.22;6153979;23;20012;-89
2022/11/12 03:52:47;;;;;;;21.95;19.63;;;;;;;2.15;100.00;102936.81;6154963;23;20009;-90
2022/11/12 03:55:17;;;;;;;21.40;18.95;;;;;;;2.20;100.00;102953.53;6153235;23;20383;-89
2022/11/12 03:57:42;;;;;;;21.58;18.23;;;;;;;2.20;100.00;102951.78;6155128;23;20016;-89
2022/11/12 04:00:10;;;;;;;21.42;19.27;;;;;;;2.21;100.00;102940.41;6123777;23;20436;-89
2022/11/12 04:02:35;;;;;;;23.50;19.17;;;;;;;2.19;100.00;102938.63;6138901;23;20006;-90
2022/11/12 04:10:31;;;;;;;20.23;18.23;;;;;;;2.10;100.00;102934.09;6134236;23;19965;-89
2022/11/12 04:15:40;;;;;;;20.58;18.38;;;;;;;2.08;100.00;102927.03;6134627;23;20032;-90
2022/11/12 04:23:53;;;;;;;22.33;18.90;;;;;;;2.06;100.00;102920.91;6066697;23;20508;-89
2022/11/12 04:26:24;;;;;;;20.23;17.67;;;;;;;2.02;100.00;102916.44;6067981;23;20018;-90
2022/11/12 04:31:35;;;;;;;21.02;16.50;;;;;;;1.91;100.00;102911.88;6023295;23;20010;-91
2022/11/12 04:34:27;;;;;;;22.38;17.73;;;;;;;1.88;100.00;102917.09;6064167;23;20050;-91
2022/11/12 04:36:45;;;;;;;20.00;17.83;;;;;;;1.87;100.00;102906.53;6065404;23;20007;-89
2022/11/12 04:39:11;;;;;;;20.35;18.08;;;;;;;1.94;100.00;102916.31;6065033;23;20011;-89
2022/11/12 04:47:04;;;;;;;19.92;17.73;;;;;;;1.90;100.00;102912.72;6064006;23;20022;-91
2022/11/12 04:49:29;;;;;;;22.30;17.48;;;;;;;1.89;100.00;102905.72;6045088;23;20019;-89
2022/11/12 04:52:03;;;;;;;20.30;18.08;;;;;;;1.90;100.00;102907.47;6063572;23;20046;-90
2022/11/12 04:54:29;;;;;;;20.40;17.70;;;;;;;1.87;100.00;102906.53;6089930;23;20009;-91
2022/11/12 04:56:54;;;;;;;22.10;18.50;;;;;;;1.87;100.00;102901.28;6123690;23;20349;-90
2022/11/12 04:59:19;;;;;;;20.88;18.30;;;;;;;1.92;100.00;102911.03;6141485;23;20024;-89
2022/11/12 05:01:44;;;;;;;20.98;18.65;;;;;;;1.86;100.00;102902.16;6152811;23;20001;-91
2022/11/12 05:04:10;;;;;;;20.10;18.00;;;;;;;1.75;100.00;102904.56;6153044;23;20005;-90
2022/11/12 05:06:50;;;;;;;21.17;17.52;;;;;;;1.68;100.00;102897.47;6151933;23;20032;-90
2022/11/12 05:09:16;;;;;;;20.63;17.55;;;;;;;1.60;100.00;102893.81;6153911;23;20304;-90
2022/11/12 05:11:41;;;;;;;21.80;18.17;;;;;;;1.65;100.00;102895.66;6154032;23;20005;-90
2022/11/12 05:14:06;;;;;;;22.30;18.40;;;;;;;1.69;100.00;102891.34;6153031;23;20096;-90
2022/11/12 05:16:32;;;;;;;21.90;17.23;;;;;;;1.70;100.00;102893.09;6127314;23;20010;-91
2022/11/12 05:18:57;;;;;;;23.25;19.27;;;;;;;1.59;100.00;102890.28;6154217;23;20016;-90
2022/11/12 05:24:06;;;;;;;21.05;16.98;;;;;;;1.64;100.00;102887.75;6153143;23;20176;-88
2022/11/12 05:26:32;;;;;;;21.95;18.58;;;;;;;1.65;100.00;102887.78;6151695;23;20019;-88
2022/11/12 05:28:57;;;;;;;21.08;18.60;;;;;;;1.59;100.00;102884.13;6152804;23;20080;-90
2022/11/12 05:31:22;;;;;;;24.17;19.10;;;;;;;1.62;100.00;102879.81;6152046;23;20274;-88
2022/11/12 05:33:47;;;;;;;21.00;18.67;;;;;;;1.65;100.00;102892.13;6152285;23;20020;-90
2022/11/12 05:36:13;;;;;;;20.30;18.00;;;;;;;1.65;100.00;102881.63;6152088;23;20013;-89
2022/11/12 05:38:38;;;;;;;23.42;17.98;;;;;;;1.62;100.00;102881.56;6152951;23;20482;-89
2022/11/12 05:41:03;;;;;;;19.52;17.30;;;;;;;1.59;100.00;102885.03;6124819;23;20016;-89
2022/11/12 05:43:29;;;;;;;19.55;17.45;;;;;;;1.60;100.00;102891.19;6125269;23;20017;-90
2022/11/12 05:45:54;;;;;;;18.63;16.73;;;;;;;1.61;100.00;102882.44;6151379;23;20036;-90
2022/11/12 05:48:19;;;;;;;18.95;16.25;;;;;;;1.60;100.00;102878.06;6152082;23;20005;-90
2022/11/12 05:50:48;;;;;;;18.25;15.80;;;;;;;1.53;100.00;102878.78;6152397;23;20006;-89
2022/11/12 05:53:14;;;;;;;19.55;16.92;;;;;;;1.49;100.00;102878.72;6152589;23;19989;-90
2022/11/12 05:55:39;;;;;;;19.33;16.52;;;;;;;1.54;100.00;102880.53;6152255;23;20348;-90
2022/11/12 05:58:05;;;;;;;18.95;16.95;;;;;;;1.57;100.00;102880.63;6131177;23;20059;-90
2022/11/12 06:00:30;;;;;;;20.33;16.77;;;;;;;1.58;100.00;102879.75;6161624;23;20013;-89
2022/11/12 06:02:57;;;;;;;18.33;16.42;;;;;;;1.49;100.00;102878.72;6138081;23;20048;-89
2022/11/12 06:05:22;;;;;;;18.58;16.52;;;;;;;1.43;100.00;102883.88;6162257;23;20001;-89
2022/11/12 06:07:48;;;;;;;19.15;17.15;;;;;;;1.45;100.00;102884.75;6157144;23;20088;-89
2022/11/12 06:10:13;;;;;;;21.38;16.50;;;;;;;1.38;100.00;102880.28;6152715;23;20009;-90
2022/11/12 06:12:38;;;;;;;23.10;18.05;;;;;;;1.45;100.00;102876.88;6152344;23;20018;-88
2022/11/12 06:15:04;;;;;;;19.65;17.35;;;;;;;1.38;100.00;102874.09;6122261;23;20170;-90
2022/11/12 06:17:29;;;;;;;19.13;17.13;;;;;;;1.40;100.00;102873.28;6150370;23;20024;-89
2022/11/12 06:19:54;;;;;;;22.13;17.13;;;;;;;1.46;100.00;102889.19;6151524;23;20005;-89
2022/11/12 06:22:20;;;;;;;20.15;17.58;;;;;;;1.45;100.00;102883.88;6151767;23;20436;-90
2022/11/12 06:24:45;;;;;;;19.75;17.70;;;;;;;1.40;100.00;102883.78;6152673;23;20025;-89
2022/11/12 06:27:10;;;;;;;20.33;18.10;;;;;;;1.44;100.00;102888.25;6151345;23;20368;-90
2022/11/12 06:29:37;;;;;;;20.73;17.58;;;;;;;1.41;100.00;102885.56;6151929;23;20001;-88
2022/11/12 06:32:02;;;;;;;18.52;16.58;;;;;;;1.40;100.00;102888.16;6150337;23;20005;-88
2022/11/12 06:34:28;;;;;;;19.58;17.48;;;;;;;1.25;100.00;102893.97;6151459;23;20331;-90
2022/11/12 06:36:53;;;;;;;19.83;16.27;;;;;;;1.33;100.00;102895.00;6128004;23;20013;-89
2022/11/12 06:39:19;;;;;;;18.98;16.98;;;;;;;1.36;100.00;102899.44;6158037;23;20029;-90
2022/11/12 06:41:45;;;;;;;19.77;16.38;;;;;;;1.34;100.00;102902.06;6158702;23;19993;-91
2022/11/12 06:44:10;;;;;;;19.38;17.30;;;;;;;1.37;100.00;102898.59;6156494;23;20036;-90
2022/11/12 06:46:35;;;;;;;19.73;17.08;;;;;;;1.30;100.00;102899.34;6151458;23;20037;-90
2022/11/12 06:49:01;;;;;;;19.50;17.00;;;;;;;1.25;100.00;102886.09;6153958;23;20005;-90
2022/11/12 06:51:26;;;;;;;18.98;16.73;;;;;;;1.35;100.00;102901.19;6154274;23;20022;-91
2022/11/12 06:53:51;;;;;;;18.52;16.25;;;;;;;1.32;100.00;102906.38;6154576;23;20060;-91
2022/11/12 06:56:17;;;;;;;20.52;16.80;;;;;;;1.33;100.00;102900.25;6156968;23;20005;-90
2022/11/12 06:58:42;;;;;;;16.70;14.98;;;;;;;1.31;100.00;102904.59;6160113;23;20388;-90
2022/11/12 07:01:11;;;;;;;18.30;16.40;;;;;;;1.40;100.00;102896.03;6169567;23;20005;-90
2022/11/12 07:03:37;;;;;;;18.15;16.23;;;;;;;1.42;100.00;102900.47;6164615;23;20017;-89
2022/11/12 07:06:07;;;;;;;18.90;16.90;;;;;;;1.46;100.00;102901.38;6163797;23;20033;-89
2022/11/12 07:08:33;;;;;;;18.85;16.70;;;;;;;1.45;100.00;102897.88;6166505;23;20097;-89
2022/11/12 07:10:59;;;;;;;18.73;16.83;;;;;;;1.49;100.00;102904.97;6131500;23;20021;-89
2022/11/12 07:13:24;;;;;;;21.02;17.15;;;;;;;1.52;100.00;102898.91;6152803;23;20005;-89
2022/11/12 07:15:50;;;;;;;17.73;15.75;;;;;;;1.48;100.00;102904.94;6151376;23;20009;-90
2022/11/12 07:18:15;;;;;;;19.98;16.50;;;;;;;1.53;100.00;102905.91;6153572;23;20029;-90
2022/11/12 07:20:40;;;;;;;18.17;16.27;;;;;;;1.57;100.00;102907.75;6125161;23;20002;-89
2022/11/12 07:23:06;;;;;;;19.75;17.38;;;;;;;1.58;100.00;102909.50;6149800;23;20009;-88
2022/11/12 07:25:31;;;;;;;18.00;16.20;;;;;;;1.62;100.00;102913.94;6150433;23;20017;-90
2022/11/12 07:27:56;;;;;;;17.02;15.32;;;;;;;1.62;100.00;102910.44;6127606;23;20301;-89
2022/11/12 07:30:21;;;;;;;18.77;16.73;;;;;;;1.63;100.00;102910.50;6154022;23;20005;-88
2022/11/12 07:32:47;;;;;;;18.83;16.38;;;;;;;1.69;100.00;102914.97;6153040;23;20013;-89
2022/11/12 07:35:12;;;;;;;17.75;15.85;;;;;;;1.71;100.00;102918.50;6153983;23;20367;-90
2022/11/12 07:37:37;;;;;;;17.23;15.45;;;;;;;1.65;100.00;102915.75;6152783;23;20009;-89
2022/11/12 07:40:04;;;;;;;18.20;15.48;;;;;;;1.62;100.00;102911.31;6151807;23;20009;-89
2022/11/12 07:42:32;;;;;;;20.10;16.48;;;;;;;1.68;100.00;102910.59;6153596;23;20013;-90
2022/11/12 07:44:58;;;;;;;18.50;16.60;;;;;;;1.75;100.00;102928.19;6151650;23;20009;-90
2022/11/12 07:47:23;;;;;;;19.30;16.50;;;;;;;1.78;100.00;102923.00;6153958;23;19990;-90
2022/11/12 07:49:48;;;;;;;18.27;16.08;;;;;;;1.87;100.00;102933.69;6153397;23;20014;-89
2022/11/12 07:52:13;;;;;;;19.40;17.50;;;;;;;1.91;100.00;102919.75;6152151;23;20009;-90
2022/11/12 07:54:39;;;;;;;21.63;17.73;;;;;;;1.90;100.00;102918.00;6153042;23;20022;-90
2022/11/12 07:57:04;;;;;;;18.50;16.58;;;;;;;1.98;100.00;102926.00;6153663;23;20076;-90
2022/11/12 07:59:29;;;;;;;20.67;17.80;;;;;;;2.04;100.00;102928.72;6153532;23;20025;-90
2022/11/12 08:01:55;;;;;;;20.23;17.98;;;;;;;2.04;100.00;102906.84;6153958;23;20041;-90
2022/11/12 08:04:20;;;;;;;19.40;17.27;;;;;;;2.16;100.00;102934.19;6152421;23;19994;-89
2022/11/12 08:06:45;;;;;;;20.45;17.35;;;;;;;2.19;100.00;102936.88;6151369;23;20080;-89
2022/11/12 08:09:10;;;;;;;18.88;16.75;;;;;;;2.23;100.00;102940.47;6150352;23;20012;-90
2022/11/12 08:11:36;;;;;;;17.60;15.90;;;;;;;2.24;100.00;102926.44;6152926;23;20006;-89
2022/11/12 08:14:02;;;;;;;22.13;18.83;;;;;;;2.30;100.00;102937.09;6152801;23;20009;-91
2022/11/12 08:16:28;;;;;;;21.23;19.02;;;;;;;2.41;100.00;102946.00;6153271;23;20005;-90
2022/11/12 08:18:53;;;;;;;20.92;18.35;;;;;;;2.46;100.00;102936.44;6153367;23;20009;-88
2022/11/12 08:21:19;;;;;;;23.80;21.25;;;;;;;2.63;100.00;102928.81;6152657;23;20428;-89
2022/11/12 08:23:45;;;;;;;25.63;19.58;;;;;;;2.72;100.00;102939.50;6151757;23;20037;-87
2022/11/12 08:26:13;;;;;;;23.65;21.05;;;;;;;2.86;100.00;102939.69;6156750;23;20007;-92
2022/11/12 08:28:39;;;;;;;24.30;21.20;;;;;;;2.95;100.00;102934.56;6142287;23;20010;-88
2022/11/12 08:31:18;;;;;;;24.60;20.33;;;;;;;3.09;100.00;102944.41;6144821;23;20010;-92
2022/11/12 08:33:43;;;;;;;26.60;20.42;;;;;;;3.14;100.00;102942.72;6129452;23;20005;-87
2022/11/12 08:36:11;;;;;;;26.67;20.90;;;;;;;3.25;100.00;102951.63;6156462;23;20072;-86
2022/11/12 08:38:37;;;;;;;24.45;20.27;;;;;;;3.30;100.00;102936.78;6153224;23;20006;-85
2022/11/12 08:41:05;;;;;;;21.73;19.42;;;;;;;3.34;100.00;102941.22;6155553;23;20037;-88
2022/11/12 08:43:31;;;;;;;22.17;19.77;;;;;;;3.38;100.00;102950.91;6154451;23;20033;-88
2022/11/12 08:45:58;;;;;;;21.42;19.23;;;;;;;3.36;100.00;102955.28;6156786;23;20000;-87
2022/11/12 08:48:25;;;;;;;19.80;17.70;;;;;;;3.33;100.00;102949.97;6177565;23;20009;-88
2022/11/12 08:50:50;;;;;;;22.48;19.73;;;;;;;3.37;100.00;102957.06;6178660;23;20058;-88
2022/11/12 08:53:15;;;;;;;22.35;19.98;;;;;;;3.38;100.00;102953.56;6178237;23;19998;-87
2022/11/12 08:55:41;;;;;;;21.63;19.33;;;;;;;3.45;100.00;102955.41;6178132;23;20018;-87
2022/11/12 08:58:06;;;;;;;20.13;17.65;;;;;;;3.39;100.00;102943.94;6178225;23;20017;-87
2022/11/12 09:00:35;;;;;;;22.38;20.17;;;;;;;3.55;100.00;102950.25;6178559;23;19997;-88
2022/11/12 09:03:01;;;;;;;21.50;19.23;;;;;;;3.60;100.00;102954.72;6170011;23;20069;-87
2022/11/12 09:05:27;;;;;;;22.63;20.30;;;;;;;3.74;100.00;102950.47;6174478;23;20064;-87
2022/11/12 09:08:08;;;;;;;22.83;20.00;;;;;;;3.82;100.00;102957.59;6166074;23;20060;-87
2022/11/12 09:10:34;;;;;;;27.08;22.35;;;;;;;3.88;100.00;102962.91;6163519;23;20012;-88
2022/11/12 09:13:00;;;;;;;24.27;21.13;;;;;;;3.93;100.00;102948.03;6161494;23;20009;-87
2022/11/12 09:15:28;;;;;;;23.75;21.02;;;;;;;4.07;100.00;102951.72;6158801;23;20005;-88
2022/11/12 09:17:55;;;;;;;22.75;20.45;;;;;;;4.13;100.00;102946.47;6155419;23;20008;-88
2022/11/12 09:20:21;;;;;;;22.20;19.80;;;;;;;4.25;100.00;102949.22;6156051;23;20001;-87
2022/11/12 09:22:46;;;;;;;24.38;20.58;;;;;;;4.35;100.00;102939.66;6155870;23;20010;-87
2022/11/12 09:25:11;;;;;;;22.35;20.13;;;;;;;4.56;100.00;102946.00;6153606;23;20036;-86
2022/11/12 09:27:37;;;;;;;22.48;20.13;;;;;;;4.68;100.00;102940.78;6154372;23;20024;-88
2022/11/12 09:30:03;;;;;;;24.02;21.55;;;;;;;4.80;100.00;102946.13;6154306;23;20551;-88
2022/11/12 09:32:29;;;;;;;22.25;19.95;;;;;;;4.94;100.00;102938.34;6154558;23;20313;-88
2022/11/12 09:34:54;;;;;;;22.63;19.98;;;;;;;5.10;100.00;102937.53;6153397;23;20012;-88
2022/11/12 09:37:19;;;;;;;22.45;20.17;;;;;;;5.23;100.00;102941.13;6154315;23;20440;-88
2022/11/12 09:39:44;;;;;;;22.17;19.83;;;;;;;5.35;100.00;102943.81;6153916;23;20016;-88
2022/11/12 09:42:16;;;;;;;22.38;20.17;;;;;;;5.47;100.00;102943.84;6153566;23;20083;-87
2022/11/12 09:44:46;;;;;;;25.08;21.45;;;;;;;5.62;100.00;102936.88;6153515;23;20001;-88
2022/11/12 09:47:19;;;;;;;22.65;20.25;;;;;;;5.78;100.00;102951.00;6152932;23;20059;-89
2022/11/12 09:50:01;;;;;;;23.27;20.98;;;;;;;5.85;100.00;102945.75;6153263;23;20059;-88
2022/11/12 09:52:28;;;;;;;22.48;20.13;;;;;;;5.93;100.00;102941.38;6126691;23;20013;-87
2022/11/12 09:55:13;;;;;;;23.58;21.13;;;;;;;6.11;100.00;102944.94;6152204;23;20416;-89
2022/11/12 09:57:39;;;;;;;24.17;21.60;;;;;;;6.25;100.00;102940.53;6153436;23;20013;-87
2022/11/12 10:00:15;;;;;;;26.85;24.15;;;;;;;6.36;100.00;102940.56;6152786;23;20084;-89
2022/11/12 10:02:55;;;;;;;28.67;25.58;;;;;;;6.47;100.00;102937.00;6152917;23;20015;-90
2022/11/12 10:05:23;;;;;;;32.78;29.52;;;;;;;6.62;100.00;102928.19;6153068;23;20012;-90
2022/11/12 10:08:03;;;;;;;32.60;29.25;;;;;;;6.78;100.00;102920.25;6153427;23;20332;-88
2022/11/12 10:10:31;;;;;;;36.38;32.80;;;;;;;6.89;100.00;102932.53;6153290;23;20056;-87
2022/11/12 10:12:56;;;;;;;36.35;32.65;;;;;;;6.98;100.00;102927.25;6153088;23;19993;-90
2022/11/12 10:18:55;;;;;;;37.63;33.63;;;;;;;7.15;100.00;102929.84;6153130;23;20024;-86
2022/11/12 10:21:45;;;;;;;39.10;35.10;;;;;;;7.26;100.00;102921.84;6004411;23;20011;-86
2022/11/12 10:24:11;;;;;;;40.55;36.45;;;;;;;7.38;100.00;102910.31;6001238;23;20052;-86
2022/11/12 10:26:38;;;;;;;42.63;38.13;;;;;;;7.52;100.00;102928.78;6005246;23;20015;-86
2022/11/12 10:29:20;;;;;;;46.53;41.70;;;;;;;7.55;100.00;102921.72;6009876;23;20014;-86
2022/11/12 10:31:45;;;;;;;46.97;42.13;;;;;;;7.68;100.00;102920.75;6012527;23;20011;-85
2022/11/12 10:34:21;;;;;;;49.55;44.42;;;;;;;7.69;100.00;102926.94;6004930;23;20131;-86
2022/11/12 10:36:54;;;;;;;50.15;44.60;;;;;;;7.63;100.00;102926.97;6007716;23;20011;-85
2022/11/12 10:39:31;;;;;;;51.78;46.10;;;;;;;7.74;100.00;102934.00;6007358;23;20011;-86
2022/11/12 10:42:09;;;;;;;50.35;45.03;;;;;;;7.85;100.00;102927.72;5984455;23;20111;-83
2022/11/12 10:44:34;;;;;;;49.53;44.00;;;;;;;7.92;100.00;102922.38;6006304;23;20636;-86
2022/11/12 10:47:23;;;;;;;49.13;43.80;;;;;;;8.05;100.00;102907.25;5983640;23;20003;-86
2022/11/12 10:50:03;;;;;;;49.83;44.00;;;;;;;8.28;99.37;102911.50;6008144;23;20048;-85
2022/11/12 10:52:28;;;;;;;49.75;44.45;;;;;;;8.47;98.24;102905.19;6013394;23;20011;-84
2022/11/12 10:55:13;;;;;;;48.00;42.97;;;;;;;8.52;97.91;102902.47;6016797;23;20139;-85
2022/11/12 10:57:38;;;;;;;44.20;39.72;;;;;;;8.59;96.57;102906.84;6077973;23;20076;-87
2022/11/12 11:00:22;;;;;;;40.95;36.55;;;;;;;8.68;96.59;102902.31;6165432;23;20014;-84
2022/11/12 11:02:51;;;;;;;34.67;31.10;;;;;;;8.72;95.68;102901.38;6154253;23;20553;-86
2022/11/12 11:05:28;;;;;;;32.75;29.15;;;;;;;8.91;93.68;102896.78;6152649;23;20033;-85
2022/11/12 11:07:53;;;;;;;26.83;23.92;;;;;;;8.94;92.54;102894.06;6152876;23;20648;-86
2022/11/12 11:10:35;;;;;;;24.95;22.33;;;;;;;8.97;94.22;102893.16;6126297;23;20067;-87
2022/11/12 11:13:20;;;;;;;23.70;21.30;;;;;;;9.02;92.38;102891.31;6126949;23;20013;-86
2022/11/12 11:16:00;;;;;;;23.00;20.38;;;;;;;9.10;92.15;102878.84;6156996;23;20105;-86
2022/11/12 11:18:27;;;;;;;27.25;24.38;;;;;;;9.14;92.06;102883.22;6168427;23;20010;-86
2022/11/12 11:21:34;;;;;;;25.23;22.52;;;;;;;9.15;92.96;102890.28;6171409;23;20006;-86
2022/11/12 11:24:20;;;;;;;27.73;23.63;;;;;;;9.08;92.73;102890.38;6103401;23;20013;-86
2022/11/12 11:27:01;;;;;;;26.67;23.83;;;;;;;9.12;93.53;102881.50;6177103;23;20090;-86
2022/11/12 11:29:54;;;;;;;24.98;22.33;;;;;;;9.16;94.13;102886.75;6178920;23;19993;-87
2022/11/12 11:32:55;;;;;;;20.58;18.38;;;;;;;9.16;92.89;102876.13;6169602;23;20014;-86
2022/11/12 11:35:31;;;;;;;20.55;18.05;;;;;;;9.20;92.24;102884.94;6161095;23;20060;-86
2022/11/12 11:38:15;;;;;;;22.33;19.95;;;;;;;9.37;91.10;102882.06;6156893;23;20010;-87
2022/11/12 11:40:45;;;;;;;;;;;;;;;9.38;94.24;102878.50;6156873;23;20005;-87
2022/11/12 11:43:47;;;;;;;20.95;18.75;;;;;;;9.54;91.12;102876.50;6155151;23;19979;-85